sensor_id;sensor_type;location;lat;lon;timestamp;temperature;humidity
43946;DHT22;29599;51.196;4.428;2022-11-20T00:00:55;4.70;99.90
43946;DHT22;29599;51.196;4.428;2022-11-20T00:03:21;4.70;99.90
43946;DHT22;29599;51.196;4.428;2022-11-20T00:05:46;4.70;99.90
43946;DHT22;29599;51.196;4.428;2022-11-20T00:08:12;4.60;99.90
43946;DHT22;29599;51.196;4.428;2022-11-20T00:10:39;4.70;99.90
43946;DHT22;29599;51.196;4.428;2022-11-20T00:13:05;4.60;99.90
43946;DHT22;29599;51.196;4.428;2022-11-20T00:15:31;4.70;99.90
43946;DHT22;29599;51.196;4.428;2022-11-20T00:17:56;4.70;99.90
43946;DHT22;29599;51.196;4.428;2022-11-20T00:20:22;4.60;99.90
43946;DHT22;29599;51.196;4.428;2022-11-20T00:22:48;4.70;99.90
43946;DHT22;29599;51.196;4.428;2022-11-20T00:25:14;4.70;99.90
43946;DHT22;29599;51.196;4.428;2022-11-20T00:27:40;4.70;99.90
43946;DHT22;29599;51.196;4.428;2022-11-20T00:30:06;4.70;99.90
43946;DHT22;29599;51.196;4.428;2022-11-20T00:32:32;4.60;99.90
43946;DHT22;29599;51.196;4.428;2022-11-20T00:34:57;4.60;99.90
43946;DHT22;29599;51.196;4.428;2022-11-20T00:37:23;4.60;99.90
43946;DHT22;29599;51.196;4.428;2022-11-20T00:39:48;4.60;99.90
43946;DHT22;29599;51.196;4.428;2022-11-20T00:42:14;4.60;99.90
43946;DHT22;29599;51.196;4.428;2022-11-20T00:44:40;4.60;99.90
43946;DHT22;29599;51.196;4.428;2022-11-20T00:47:05;4.60;99.90
43946;DHT22;29599;51.196;4.428;2022-11-20T00:49:31;4.50;99.90
43946;DHT22;29599;51.196;4.428;2022-11-20T00:51:56;4.60;99.90
43946;DHT22;29599;51.196;4.428;2022-11-20T00:54:22;4.60;99.90
43946;DHT22;29599;51.196;4.428;2022-11-20T00:56:47;4.60;99.90
43946;DHT22;29599;51.196;4.428;2022-11-20T00:59:13;4.60;99.90
43946;DHT22;29599;51.196;4.428;2022-11-20T01:01:39;4.60;99.90
43946;DHT22;29599;51.196;4.428;2022-11-20T01:04:04;4.50;99.90
43946;DHT22;29599;51.196;4.428;2022-11-20T01:06:33;4.60;99.90
43946;DHT22;29599;51.196;4.428;2022-11-20T01:09:01;4.60;99.90
43946;DHT22;29599;51.196;4.428;2022-11-20T01:11:30;4.60;99.90
43946;DHT22;29599;51.196;4.428;2022-11-20T01:13:57;4.70;99.90
43946;DHT22;29599;51.196;4.428;2022-11-20T01:16:25;4.60;99.90
43946;DHT22;29599;51.196;4.428;2022-11-20T01:18:53;4.70;99.90
43946;DHT22;29599;51.196;4.428;2022-11-20T01:21:21;4.70;99.90
43946;DHT22;29599;51.196;4.428;2022-11-20T01:23:49;4.60;99.90
43946;DHT22;29599;51.196;4.428;2022-11-20T01:26:17;4.60;99.90
43946;DHT22;29599;51.196;4.428;2022-11-20T01:28:43;4.60;99.90
43946;DHT22;29599;51.196;4.428;2022-11-20T01:31:14;4.60;99.90
43946;DHT22;29599;51.196;4.428;2022-11-20T01:33:41;4.60;99.90
43946;DHT22;29599;51.196;4.428;2022-11-20T01:36:07;4.60;99.90
43946;DHT22;29599;51.196;4.428;2022-11-20T01:38:33;4.60;99.90
43946;DHT22;29599;51.196;4.428;2022-11-20T01:40:58;4.60;99.90
43946;DHT22;29599;51.196;4.428;2022-11-20T01:43:24;4.60;99.90
43946;DHT22;29599;51.196;4.428;2022-11-20T01:46:16;4.60;99.90
43946;DHT22;29599;51.196;4.428;2022-11-20T01:48:53;4.50;99.90
43946;DHT22;29599;51.196;4.428;2022-11-20T01:53:54;4.50;99.90
43946;DHT22;29599;51.196;4.428;2022-11-20T01:56:21;4.40;99.90
43946;DHT22;29599;51.196;4.428;2022-11-20T01:58:52;4.50;99.90
43946;DHT22;29599;51.196;4.428;2022-11-20T02:01:20;4.60;99.90
43946;DHT22;29599;51.196;4.428;2022-11-20T02:03:46;4.60;99.90
43946;DHT22;29599;51.196;4.428;2022-11-20T02:06:43;4.60;99.90
43946;DHT22;29599;51.196;4.428;2022-11-20T02:09:09;4.50;99.90
43946;DHT22;29599;51.196;4.428;2022-11-20T02:11:35;4.40;99.90
43946;DHT22;29599;51.196;4.428;2022-11-20T02:14:01;4.60;99.90
43946;DHT22;29599;51.196;4.428;2022-11-20T02:16:59;4.50;99.90
43946;DHT22;29599;51.196;4.428;2022-11-20T02:19:30;4.50;99.90
43946;DHT22;29599;51.196;4.428;2022-11-20T02:22:10;4.50;99.90
43946;DHT22;29599;51.196;4.428;2022-11-20T02:24:38;4.40;99.90
43946;DHT22;29599;51.196;4.428;2022-11-20T02:27:15;4.50;99.90
43946;DHT22;29599;51.196;4.428;2022-11-20T02:29:43;4.50;99.90
43946;DHT22;29599;51.196;4.428;2022-11-20T02:32:26;4.50;99.90
43946;DHT22;29599;51.196;4.428;2022-11-20T02:34:52;4.50;99.90
43946;DHT22;29599;51.196;4.428;2022-11-20T02:37:18;4.50;99.90
43946;DHT22;29599;51.196;4.428;2022-11-20T02:39:46;4.50;99.90
43946;DHT22;29599;51.196;4.428;2022-11-20T02:42:13;4.50;99.90
43946;DHT22;29599;51.196;4.428;2022-11-20T02:44:38;4.40;99.90
43946;DHT22;29599;51.196;4.428;2022-11-20T02:47:04;4.40;99.90
43946;DHT22;29599;51.196;4.428;2022-11-20T02:49:29;4.50;99.90
43946;DHT22;29599;51.196;4.428;2022-11-20T02:51:55;4.50;99.90
43946;DHT22;29599;51.196;4.428;2022-11-20T02:54:21;4.50;99.90
43946;DHT22;29599;51.196;4.428;2022-11-20T02:56:46;4.50;99.90
43946;DHT22;29599;51.196;4.428;2022-11-20T02:59:12;4.50;99.90
43946;DHT22;29599;51.196;4.428;2022-11-20T03:01:37;4.40;99.90
43946;DHT22;29599;51.196;4.428;2022-11-20T03:04:04;4.50;99.90
43946;DHT22;29599;51.196;4.428;2022-11-20T03:06:29;4.40;99.90
43946;DHT22;29599;51.196;4.428;2022-11-20T03:08:55;4.40;99.90
43946;DHT22;29599;51.196;4.428;2022-11-20T03:11:21;4.40;99.90
43946;DHT22;29599;51.196;4.428;2022-11-20T03:13:46;4.40;99.90
43946;DHT22;29599;51.196;4.428;2022-11-20T03:16:14;4.50;99.90
43946;DHT22;29599;51.196;4.428;2022-11-20T03:18:41;4.50;99.90
43946;DHT22;29599;51.196;4.428;2022-11-20T03:21:08;4.50;99.90
43946;DHT22;29599;51.196;4.428;2022-11-20T03:23:34;4.50;99.90
43946;DHT22;29599;51.196;4.428;2022-11-20T03:26:19;4.50;99.90
43946;DHT22;29599;51.196;4.428;2022-11-20T03:28:50;4.50;99.90
43946;DHT22;29599;51.196;4.428;2022-11-20T03:31:18;4.50;99.90
43946;DHT22;29599;51.196;4.428;2022-11-20T03:33:44;4.60;99.90
43946;DHT22;29599;51.196;4.428;2022-11-20T03:36:13;4.50;99.90
43946;DHT22;29599;51.196;4.428;2022-11-20T03:38:39;4.60;99.90
43946;DHT22;29599;51.196;4.428;2022-11-20T03:41:07;4.60;99.90
43946;DHT22;29599;51.196;4.428;2022-11-20T03:43:34;4.60;99.90
43946;DHT22;29599;51.196;4.428;2022-11-20T03:46:00;4.50;99.90
43946;DHT22;29599;51.196;4.428;2022-11-20T03:48:26;4.50;99.90
43946;DHT22;29599;51.196;4.428;2022-11-20T03:50:53;4.50;99.90
43946;DHT22;29599;51.196;4.428;2022-11-20T03:53:19;4.50;99.90
43946;DHT22;29599;51.196;4.428;2022-11-20T03:55:49;4.40;99.90
43946;DHT22;29599;51.196;4.428;2022-11-20T03:58:15;4.50;99.90
43946;DHT22;29599;51.196;4.428;2022-11-20T04:00:41;4.40;99.90
43946;DHT22;29599;51.196;4.428;2022-11-20T04:03:07;4.40;99.90
43946;DHT22;29599;51.196;4.428;2022-11-20T04:05:33;4.40;99.90
43946;DHT22;29599;51.196;4.428;2022-11-20T04:07:59;4.40;99.90
43946;DHT22;29599;51.196;4.428;2022-11-20T04:10:25;4.50;99.90
43946;DHT22;29599;51.196;4.428;2022-11-20T04:12:51;4.50;99.90
43946;DHT22;29599;51.196;4.428;2022-11-20T04:15:16;4.50;99.90
43946;DHT22;29599;51.196;4.428;2022-11-20T04:17:42;4.60;99.90
43946;DHT22;29599;51.196;4.428;2022-11-20T04:20:08;4.60;99.90
43946;DHT22;29599;51.196;4.428;2022-11-20T04:22:34;4.60;99.90
43946;DHT22;29599;51.196;4.428;2022-11-20T04:24:59;4.60;99.90
43946;DHT22;29599;51.196;4.428;2022-11-20T04:27:25;4.60;99.90
43946;DHT22;29599;51.196;4.428;2022-11-20T04:29:50;4.60;99.90
43946;DHT22;29599;51.196;4.428;2022-11-20T04:32:16;4.60;99.90
43946;DHT22;29599;51.196;4.428;2022-11-20T04:34:42;4.60;99.90
43946;DHT22;29599;51.196;4.428;2022-11-20T04:37:07;4.60;99.90
43946;DHT22;29599;51.196;4.428;2022-11-20T04:39:33;4.60;99.90
43946;DHT22;29599;51.196;4.428;2022-11-20T04:41:58;4.60;99.90
43946;DHT22;29599;51.196;4.428;2022-11-20T04:44:42;4.60;99.90
43946;DHT22;29599;51.196;4.428;2022-11-20T04:47:08;4.50;99.90
43946;DHT22;29599;51.196;4.428;2022-11-20T04:49:33;4.50;99.90
43946;DHT22;29599;51.196;4.428;2022-11-20T04:51:59;4.50;99.90
43946;DHT22;29599;51.196;4.428;2022-11-20T04:54:25;4.50;99.90
43946;DHT22;29599;51.196;4.428;2022-11-20T04:56:50;4.50;99.90
43946;DHT22;29599;51.196;4.428;2022-11-20T04:59:16;4.40;99.90
43946;DHT22;29599;51.196;4.428;2022-11-20T05:01:42;4.30;99.90
43946;DHT22;29599;51.196;4.428;2022-11-20T05:04:08;4.40;99.90
43946;DHT22;29599;51.196;4.428;2022-11-20T05:06:33;4.40;99.90
43946;DHT22;29599;51.196;4.428;2022-11-20T05:08:59;4.40;99.90
43946;DHT22;29599;51.196;4.428;2022-11-20T05:11:26;4.40;99.90
43946;DHT22;29599;51.196;4.428;2022-11-20T05:13:54;4.40;99.90
43946;DHT22;29599;51.196;4.428;2022-11-20T05:16:22;4.40;99.90
43946;DHT22;29599;51.196;4.428;2022-11-20T05:18:48;4.40;99.90
43946;DHT22;29599;51.196;4.428;2022-11-20T05:21:15;4.40;99.90
43946;DHT22;29599;51.196;4.428;2022-11-20T05:23:42;4.40;99.90
43946;DHT22;29599;51.196;4.428;2022-11-20T05:26:15;4.40;99.90
43946;DHT22;29599;51.196;4.428;2022-11-20T05:28:41;4.40;99.90
43946;DHT22;29599;51.196;4.428;2022-11-20T05:31:09;4.40;99.90
43946;DHT22;29599;51.196;4.428;2022-11-20T05:33:35;4.50;99.90
43946;DHT22;29599;51.196;4.428;2022-11-20T05:36:02;4.50;99.90
43946;DHT22;29599;51.196;4.428;2022-11-20T05:38:28;4.60;99.90
43946;DHT22;29599;51.196;4.428;2022-11-20T05:40:54;4.70;99.90
43946;DHT22;29599;51.196;4.428;2022-11-20T05:43:19;4.60;99.90
43946;DHT22;29599;51.196;4.428;2022-11-20T05:45:53;4.60;99.90
43946;DHT22;29599;51.196;4.428;2022-11-20T05:48:19;4.70;99.90
43946;DHT22;29599;51.196;4.428;2022-11-20T05:50:44;4.70;99.90
43946;DHT22;29599;51.196;4.428;2022-11-20T05:53:10;4.70;99.90
43946;DHT22;29599;51.196;4.428;2022-11-20T05:55:35;4.60;99.90
43946;DHT22;29599;51.196;4.428;2022-11-20T05:58:01;4.60;99.90
43946;DHT22;29599;51.196;4.428;2022-11-20T06:00:27;4.60;99.90
43946;DHT22;29599;51.196;4.428;2022-11-20T06:02:52;4.60;99.90
43946;DHT22;29599;51.196;4.428;2022-11-20T06:05:18;4.60;99.90
43946;DHT22;29599;51.196;4.428;2022-11-20T06:07:43;4.60;99.90
43946;DHT22;29599;51.196;4.428;2022-11-20T06:10:09;4.60;99.90
43946;DHT22;29599;51.196;4.428;2022-11-20T06:12:35;4.40;99.90
43946;DHT22;29599;51.196;4.428;2022-11-20T06:15:00;4.50;99.90
43946;DHT22;29599;51.196;4.428;2022-11-20T06:17:26;4.50;99.90
43946;DHT22;29599;51.196;4.428;2022-11-20T06:19:52;4.40;99.90
43946;DHT22;29599;51.196;4.428;2022-11-20T06:22:17;4.40;99.90
43946;DHT22;29599;51.196;4.428;2022-11-20T06:24:43;4.40;99.90
43946;DHT22;29599;51.196;4.428;2022-11-20T06:27:08;4.50;99.90
43946;DHT22;29599;51.196;4.428;2022-11-20T06:29:34;4.50;99.90
43946;DHT22;29599;51.196;4.428;2022-11-20T06:32:00;4.50;99.90
43946;DHT22;29599;51.196;4.428;2022-11-20T06:34:26;4.50;99.90
43946;DHT22;29599;51.196;4.428;2022-11-20T06:36:52;4.50;99.90
43946;DHT22;29599;51.196;4.428;2022-11-20T06:39:17;4.50;99.90
43946;DHT22;29599;51.196;4.428;2022-11-20T06:41:43;4.50;99.90
43946;DHT22;29599;51.196;4.428;2022-11-20T06:44:08;4.50;99.90
43946;DHT22;29599;51.196;4.428;2022-11-20T06:46:34;4.40;99.90
43946;DHT22;29599;51.196;4.428;2022-11-20T06:48:59;4.50;99.90
43946;DHT22;29599;51.196;4.428;2022-11-20T06:51:25;4.50;99.90
43946;DHT22;29599;51.196;4.428;2022-11-20T06:53:51;4.50;99.90
43946;DHT22;29599;51.196;4.428;2022-11-20T06:56:16;4.50;99.90
43946;DHT22;29599;51.196;4.428;2022-11-20T06:58:42;4.40;99.90
43946;DHT22;29599;51.196;4.428;2022-11-20T07:01:10;4.40;99.90
43946;DHT22;29599;51.196;4.428;2022-11-20T07:03:36;4.40;99.90
43946;DHT22;29599;51.196;4.428;2022-11-20T07:06:03;4.40;99.90
43946;DHT22;29599;51.196;4.428;2022-11-20T07:08:29;4.50;99.90
43946;DHT22;29599;51.196;4.428;2022-11-20T07:11:03;4.40;99.90
43946;DHT22;29599;51.196;4.428;2022-11-20T07:13:29;4.50;99.90
43946;DHT22;29599;51.196;4.428;2022-11-20T07:15:59;4.50;99.90
43946;DHT22;29599;51.196;4.428;2022-11-20T07:18:25;4.50;99.90
43946;DHT22;29599;51.196;4.428;2022-11-20T07:20:51;4.50;99.90
43946;DHT22;29599;51.196;4.428;2022-11-20T07:23:16;4.60;99.90
43946;DHT22;29599;51.196;4.428;2022-11-20T07:25:42;4.60;99.90
43946;DHT22;29599;51.196;4.428;2022-11-20T07:28:07;4.60;99.90
43946;DHT22;29599;51.196;4.428;2022-11-20T07:30:33;4.60;99.90
43946;DHT22;29599;51.196;4.428;2022-11-20T07:32:59;4.60;99.90
43946;DHT22;29599;51.196;4.428;2022-11-20T07:35:24;4.60;99.90
43946;DHT22;29599;51.196;4.428;2022-11-20T07:37:50;4.70;99.90
43946;DHT22;29599;51.196;4.428;2022-11-20T07:40:17;4.70;99.90
43946;DHT22;29599;51.196;4.428;2022-11-20T07:42:53;4.80;99.90
43946;DHT22;29599;51.196;4.428;2022-11-20T07:45:20;4.80;99.90
43946;DHT22;29599;51.196;4.428;2022-11-20T07:47:46;4.80;99.90
43946;DHT22;29599;51.196;4.428;2022-11-20T07:50:13;4.90;99.90
43946;DHT22;29599;51.196;4.428;2022-11-20T07:52:39;4.80;99.90
43946;DHT22;29599;51.196;4.428;2022-11-20T07:55:06;4.80;99.90
43946;DHT22;29599;51.196;4.428;2022-11-20T07:57:31;4.70;99.90
43946;DHT22;29599;51.196;4.428;2022-11-20T07:59:57;4.70;99.90
43946;DHT22;29599;51.196;4.428;2022-11-20T08:02:23;4.80;99.90
43946;DHT22;29599;51.196;4.428;2022-11-20T08:04:48;4.80;99.90
43946;DHT22;29599;51.196;4.428;2022-11-20T08:07:14;4.80;99.90
43946;DHT22;29599;51.196;4.428;2022-11-20T08:09:40;4.90;99.90
43946;DHT22;29599;51.196;4.428;2022-11-20T08:12:05;4.90;99.90
43946;DHT22;29599;51.196;4.428;2022-11-20T08:14:50;4.90;99.90
43946;DHT22;29599;51.196;4.428;2022-11-20T08:17:15;4.90;99.90
43946;DHT22;29599;51.196;4.428;2022-11-20T08:19:41;4.90;99.90
43946;DHT22;29599;51.196;4.428;2022-11-20T08:22:07;4.80;99.90
43946;DHT22;29599;51.196;4.428;2022-11-20T08:24:32;4.90;99.90
43946;DHT22;29599;51.196;4.428;2022-11-20T08:26:58;5.00;99.90
43946;DHT22;29599;51.196;4.428;2022-11-20T08:29:25;5.00;99.90
43946;DHT22;29599;51.196;4.428;2022-11-20T08:31:51;5.00;99.90
43946;DHT22;29599;51.196;4.428;2022-11-20T08:34:16;5.00;99.90
43946;DHT22;29599;51.196;4.428;2022-11-20T08:36:42;4.90;99.90
43946;DHT22;29599;51.196;4.428;2022-11-20T08:39:10;4.90;99.90
43946;DHT22;29599;51.196;4.428;2022-11-20T08:41:36;4.90;99.90
43946;DHT22;29599;51.196;4.428;2022-11-20T08:44:04;5.00;99.90
43946;DHT22;29599;51.196;4.428;2022-11-20T08:46:35;5.10;99.90
43946;DHT22;29599;51.196;4.428;2022-11-20T08:49:06;5.10;99.90
43946;DHT22;29599;51.196;4.428;2022-11-20T08:51:32;5.10;99.90
43946;DHT22;29599;51.196;4.428;2022-11-20T08:53:58;5.10;99.90
43946;DHT22;29599;51.196;4.428;2022-11-20T08:56:24;5.20;99.90
43946;DHT22;29599;51.196;4.428;2022-11-20T08:58:50;5.30;99.90
43946;DHT22;29599;51.196;4.428;2022-11-20T09:01:17;5.30;99.90
43946;DHT22;29599;51.196;4.428;2022-11-20T09:03:43;5.30;99.90
43946;DHT22;29599;51.196;4.428;2022-11-20T09:06:08;5.40;99.90
43946;DHT22;29599;51.196;4.428;2022-11-20T09:08:34;5.30;99.90
43946;DHT22;29599;51.196;4.428;2022-11-20T09:11:01;5.30;99.90
43946;DHT22;29599;51.196;4.428;2022-11-20T09:13:28;5.30;99.90
43946;DHT22;29599;51.196;4.428;2022-11-20T09:15:59;5.20;99.90
43946;DHT22;29599;51.196;4.428;2022-11-20T09:18:27;5.30;99.90
43946;DHT22;29599;51.196;4.428;2022-11-20T09:20:57;5.30;99.90
43946;DHT22;29599;51.196;4.428;2022-11-20T09:23:23;5.30;99.90
43946;DHT22;29599;51.196;4.428;2022-11-20T09:25:48;5.30;99.90
43946;DHT22;29599;51.196;4.428;2022-11-20T09:28:14;5.40;99.90
43946;DHT22;29599;51.196;4.428;2022-11-20T09:30:40;5.40;99.90
43946;DHT22;29599;51.196;4.428;2022-11-20T09:33:06;5.50;99.90
43946;DHT22;29599;51.196;4.428;2022-11-20T09:35:32;5.50;99.90
43946;DHT22;29599;51.196;4.428;2022-11-20T09:37:58;5.50;99.90
43946;DHT22;29599;51.196;4.428;2022-11-20T09:40:26;5.50;99.90
43946;DHT22;29599;51.196;4.428;2022-11-20T09:45:50;5.40;99.90
43946;DHT22;29599;51.196;4.428;2022-11-20T09:54:19;5.40;99.90
43946;DHT22;29599;51.196;4.428;2022-11-20T09:56:54;5.50;99.90
43946;DHT22;29599;51.196;4.428;2022-11-20T09:59:36;5.60;99.90
43946;DHT22;29599;51.196;4.428;2022-11-20T10:02:16;5.70;99.90
43946;DHT22;29599;51.196;4.428;2022-11-20T10:04:50;5.80;99.90
43946;DHT22;29599;51.196;4.428;2022-11-20T10:07:33;5.80;99.90
43946;DHT22;29599;51.196;4.428;2022-11-20T10:10:02;5.90;99.90
43946;DHT22;29599;51.196;4.428;2022-11-20T10:17:58;5.90;99.90
43946;DHT22;29599;51.196;4.428;2022-11-20T10:20:43;5.90;99.90
43946;DHT22;29599;51.196;4.428;2022-11-20T10:23:34;5.90;99.90
43946;DHT22;29599;51.196;4.428;2022-11-20T10:31:34;6.00;99.90
43946;DHT22;29599;51.196;4.428;2022-11-20T10:34:06;5.90;99.90
43946;DHT22;29599;51.196;4.428;2022-11-20T10:36:40;6.00;99.90
43946;DHT22;29599;51.196;4.428;2022-11-20T10:39:16;6.10;99.90
43946;DHT22;29599;51.196;4.428;2022-11-20T10:41:46;6.10;99.90
43946;DHT22;29599;51.196;4.428;2022-11-20T10:44:21;6.10;99.90
43946;DHT22;29599;51.196;4.428;2022-11-20T10:47:14;6.10;99.90
43946;DHT22;29599;51.196;4.428;2022-11-20T10:49:41;6.10;99.90
43946;DHT22;29599;51.196;4.428;2022-11-20T10:58:22;6.10;99.90
43946;DHT22;29599;51.196;4.428;2022-11-20T11:00:51;6.20;99.90
43946;DHT22;29599;51.196;4.428;2022-11-20T11:03:26;6.30;99.90
43946;DHT22;29599;51.196;4.428;2022-11-20T11:09:16;6.30;99.90
43946;DHT22;29599;51.196;4.428;2022-11-20T11:11:42;6.40;99.90
43946;DHT22;29599;51.196;4.428;2022-11-20T11:14:13;6.40;99.90
43946;DHT22;29599;51.196;4.428;2022-11-20T11:16:56;6.50;99.90
43946;DHT22;29599;51.196;4.428;2022-11-20T11:19:23;6.50;99.90
43946;DHT22;29599;51.196;4.428;2022-11-20T11:21:51;6.50;99.90
43946;DHT22;29599;51.196;4.428;2022-11-20T11:24:28;6.60;99.90
43946;DHT22;29599;51.196;4.428;2022-11-20T11:27:11;6.60;99.90
43946;DHT22;29599;51.196;4.428;2022-11-20T11:29:37;6.60;99.90
43946;DHT22;29599;51.196;4.428;2022-11-20T11:32:13;6.70;99.90
43946;DHT22;29599;51.196;4.428;2022-11-20T11:34:39;6.70;99.90
43946;DHT22;29599;51.196;4.428;2022-11-20T11:37:05;6.80;99.90
43946;DHT22;29599;51.196;4.428;2022-11-20T11:39:39;6.80;99.90
43946;DHT22;29599;51.196;4.428;2022-11-20T11:42:12;6.80;99.90
43946;DHT22;29599;51.196;4.428;2022-11-20T11:44:45;6.90;99.90
43946;DHT22;29599;51.196;4.428;2022-11-20T11:55:16;7.00;99.90
43946;DHT22;29599;51.196;4.428;2022-11-20T12:03:38;7.10;99.90
43946;DHT22;29599;51.196;4.428;2022-11-20T12:06:16;7.20;99.90
43946;DHT22;29599;51.196;4.428;2022-11-20T12:09:11;7.20;99.90
43946;DHT22;29599;51.196;4.428;2022-11-20T12:11:58;7.20;99.90
43946;DHT22;29599;51.196;4.428;2022-11-20T12:14:37;7.20;99.90
43946;DHT22;29599;51.196;4.428;2022-11-20T12:17:03;7.20;99.90
43946;DHT22;29599;51.196;4.428;2022-11-20T12:19:34;7.30;99.90
43946;DHT22;29599;51.196;4.428;2022-11-20T12:25:28;7.30;99.90
43946;DHT22;29599;51.196;4.428;2022-11-20T12:28:10;7.30;99.90
43946;DHT22;29599;51.196;4.428;2022-11-20T12:33:31;7.40;99.90
43946;DHT22;29599;51.196;4.428;2022-11-20T12:44:41;7.40;99.90
43946;DHT22;29599;51.196;4.428;2022-11-20T12:50:34;7.50;99.90
43946;DHT22;29599;51.196;4.428;2022-11-20T12:53:10;7.50;99.90
43946;DHT22;29599;51.196;4.428;2022-11-20T12:58:39;7.50;99.90
43946;DHT22;29599;51.196;4.428;2022-11-20T13:04:20;7.50;99.90
43946;DHT22;29599;51.196;4.428;2022-11-20T13:06:50;7.50;99.90
43946;DHT22;29599;51.196;4.428;2022-11-20T13:09:19;7.50;99.90
43946;DHT22;29599;51.196;4.428;2022-11-20T13:12:09;7.50;99.90
43946;DHT22;29599;51.196;4.428;2022-11-20T13:20:14;7.50;99.90
43946;DHT22;29599;51.196;4.428;2022-11-20T13:22:47;7.50;99.90
43946;DHT22;29599;51.196;4.428;2022-11-20T13:27:49;7.50;99.90
43946;DHT22;29599;51.196;4.428;2022-11-20T13:32:52;7.50;99.90
43946;DHT22;29599;51.196;4.428;2022-11-20T13:35:31;7.50;99.90
43946;DHT22;29599;51.196;4.428;2022-11-20T13:38:10;7.50;99.90
43946;DHT22;29599;51.196;4.428;2022-11-20T13:43:42;7.50;99.90
43946;DHT22;29599;51.196;4.428;2022-11-20T13:46:10;7.50;99.90
43946;DHT22;29599;51.196;4.428;2022-11-20T13:54:33;7.40;99.90
43946;DHT22;29599;51.196;4.428;2022-11-20T14:00:07;7.40;99.90
43946;DHT22;29599;51.196;4.428;2022-11-20T14:02:35;7.40;99.90
43946;DHT22;29599;51.196;4.428;2022-11-20T14:05:01;7.40;99.90
43946;DHT22;29599;51.196;4.428;2022-11-20T14:07:39;7.40;99.90
43946;DHT22;29599;51.196;4.428;2022-11-20T14:10:23;7.40;99.90
43946;DHT22;29599;51.196;4.428;2022-11-20T14:12:49;7.40;99.90
43946;DHT22;29599;51.196;4.428;2022-11-20T14:15:33;7.40;99.90
43946;DHT22;29599;51.196;4.428;2022-11-20T14:17:59;7.40;99.90
43946;DHT22;29599;51.196;4.428;2022-11-20T14:20:29;7.40;99.90
43946;DHT22;29599;51.196;4.428;2022-11-20T14:22:56;7.50;99.90
43946;DHT22;29599;51.196;4.428;2022-11-20T14:25:26;7.40;99.90
43946;DHT22;29599;51.196;4.428;2022-11-20T14:27:58;7.50;99.90
43946;DHT22;29599;51.196;4.428;2022-11-20T14:30:39;7.50;99.90
43946;DHT22;29599;51.196;4.428;2022-11-20T14:33:11;7.50;99.90
43946;DHT22;29599;51.196;4.428;2022-11-20T14:35:44;7.50;99.90
43946;DHT22;29599;51.196;4.428;2022-11-20T14:38:13;7.50;99.90
43946;DHT22;29599;51.196;4.428;2022-11-20T14:40:39;7.50;99.90
43946;DHT22;29599;51.196;4.428;2022-11-20T14:43:25;7.50;99.90
43946;DHT22;29599;51.196;4.428;2022-11-20T14:46:07;7.60;99.90
43946;DHT22;29599;51.196;4.428;2022-11-20T14:51:11;7.60;99.90
43946;DHT22;29599;51.196;4.428;2022-11-20T14:53:37;7.60;99.90
43946;DHT22;29599;51.196;4.428;2022-11-20T14:56:03;7.60;99.90
43946;DHT22;29599;51.196;4.428;2022-11-20T14:58:33;7.60;99.90
43946;DHT22;29599;51.196;4.428;2022-11-20T15:01:01;7.60;99.90
43946;DHT22;29599;51.196;4.428;2022-11-20T15:03:37;7.70;99.90
43946;DHT22;29599;51.196;4.428;2022-11-20T15:06:04;7.60;99.90
43946;DHT22;29599;51.196;4.428;2022-11-20T15:08:30;7.60;99.90
43946;DHT22;29599;51.196;4.428;2022-11-20T15:10:56;7.70;99.90
43946;DHT22;29599;51.196;4.428;2022-11-20T15:13:31;7.70;99.90
43946;DHT22;29599;51.196;4.428;2022-11-20T15:15:59;7.70;99.90
43946;DHT22;29599;51.196;4.428;2022-11-20T15:18:36;7.70;99.90
43946;DHT22;29599;51.196;4.428;2022-11-20T15:21:10;7.80;99.90
43946;DHT22;29599;51.196;4.428;2022-11-20T15:23:36;7.70;99.90
43946;DHT22;29599;51.196;4.428;2022-11-20T15:26:04;7.80;99.90
43946;DHT22;29599;51.196;4.428;2022-11-20T15:28:33;7.80;99.90
43946;DHT22;29599;51.196;4.428;2022-11-20T15:31:00;7.80;99.90
43946;DHT22;29599;51.196;4.428;2022-11-20T15:33:27;7.90;99.90
43946;DHT22;29599;51.196;4.428;2022-11-20T15:35:53;7.90;99.90
43946;DHT22;29599;51.196;4.428;2022-11-20T15:38:18;7.90;99.90
43946;DHT22;29599;51.196;4.428;2022-11-20T15:40:44;7.90;99.90
43946;DHT22;29599;51.196;4.428;2022-11-20T15:43:09;7.90;99.90
43946;DHT22;29599;51.196;4.428;2022-11-20T15:48:16;7.90;99.90
43946;DHT22;29599;51.196;4.428;2022-11-20T15:53:26;7.90;99.90
43946;DHT22;29599;51.196;4.428;2022-11-20T15:55:51;8.00;99.90
43946;DHT22;29599;51.196;4.428;2022-11-20T15:58:17;8.00;99.90
43946;DHT22;29599;51.196;4.428;2022-11-20T16:00:43;8.00;99.90
43946;DHT22;29599;51.196;4.428;2022-11-20T16:03:14;8.00;99.90
43946;DHT22;29599;51.196;4.428;2022-11-20T16:05:40;8.00;99.90
43946;DHT22;29599;51.196;4.428;2022-11-20T16:08:06;8.00;99.90
43946;DHT22;29599;51.196;4.428;2022-11-20T16:10:31;8.00;99.90
43946;DHT22;29599;51.196;4.428;2022-11-20T16:12:57;8.00;99.90
43946;DHT22;29599;51.196;4.428;2022-11-20T16:15:41;8.00;99.90
43946;DHT22;29599;51.196;4.428;2022-11-20T16:18:18;8.00;99.90
43946;DHT22;29599;51.196;4.428;2022-11-20T16:20:47;8.00;99.90
43946;DHT22;29599;51.196;4.428;2022-11-20T16:23:13;8.00;99.90
43946;DHT22;29599;51.196;4.428;2022-11-20T16:25:39;8.10;99.90
43946;DHT22;29599;51.196;4.428;2022-11-20T16:28:05;8.10;99.90
43946;DHT22;29599;51.196;4.428;2022-11-20T16:30:32;8.10;99.90
43946;DHT22;29599;51.196;4.428;2022-11-20T16:32:59;8.10;99.90
43946;DHT22;29599;51.196;4.428;2022-11-20T16:35:26;8.10;99.90
43946;DHT22;29599;51.196;4.428;2022-11-20T16:37:52;8.10;99.90
43946;DHT22;29599;51.196;4.428;2022-11-20T16:40:18;8.10;99.90
43946;DHT22;29599;51.196;4.428;2022-11-20T16:42:43;8.10;99.90
43946;DHT22;29599;51.196;4.428;2022-11-20T16:45:09;8.10;99.90
43946;DHT22;29599;51.196;4.428;2022-11-20T16:47:35;8.10;99.90
43946;DHT22;29599;51.196;4.428;2022-11-20T16:50:02;8.10;99.90
43946;DHT22;29599;51.196;4.428;2022-11-20T16:52:29;8.00;99.90
43946;DHT22;29599;51.196;4.428;2022-11-20T16:54:55;8.00;99.90
43946;DHT22;29599;51.196;4.428;2022-11-20T16:57:20;8.10;99.90
43946;DHT22;29599;51.196;4.428;2022-11-20T16:59:47;8.10;99.90
43946;DHT22;29599;51.196;4.428;2022-11-20T17:02:13;8.10;99.90
43946;DHT22;29599;51.196;4.428;2022-11-20T17:04:38;8.00;99.90
43946;DHT22;29599;51.196;4.428;2022-11-20T17:07:04;8.00;99.90
43946;DHT22;29599;51.196;4.428;2022-11-20T17:09:30;8.00;99.90
43946;DHT22;29599;51.196;4.428;2022-11-20T17:11:55;8.00;99.90
43946;DHT22;29599;51.196;4.428;2022-11-20T17:14:21;8.00;99.90
43946;DHT22;29599;51.196;4.428;2022-11-20T17:16:46;8.00;99.90
43946;DHT22;29599;51.196;4.428;2022-11-20T17:19:13;8.00;99.90
43946;DHT22;29599;51.196;4.428;2022-11-20T17:21:39;8.00;99.90
43946;DHT22;29599;51.196;4.428;2022-11-20T17:24:07;8.00;99.90
43946;DHT22;29599;51.196;4.428;2022-11-20T17:26:34;8.00;99.90
43946;DHT22;29599;51.196;4.428;2022-11-20T17:29:08;8.10;99.90
43946;DHT22;29599;51.196;4.428;2022-11-20T17:31:35;8.00;99.90
43946;DHT22;29599;51.196;4.428;2022-11-20T17:34:03;8.10;99.90